Lonsdale, Minnesota
Current Conditions -  °F | °C
As of 2:34 AM on Thursday 27 Nov 2014 (Local Time) from KFBL Reporting Station
Clear Clear  
Wind Chill: -10°   Ceiling: Unl
Heat Index:   Visibility: 10mi
Dew Point: -4°   Wind: 8mph
Humidity: 72%   Direction: 300°WNW
Pressure: 30.42"   Gusts: NA
Location:  44.48°N, 93.43°W
Report Text: KFBL 270834Z AUTO 30007KT 10SM CLR M16/M20 A3042 RMK AO2
Loading
Personal Weather Stations






























Interactive Weather Map New forecast layout! Learn more

10-Day Weather Forecast

Advertisements
Track Severe Weather on mobile